Time;durP1;ratioP1;P1;durP2;ratioP2;P2;SDS_P1;SDS_P2;PMS_P1;PMS_P2;Temp;Humidity;BMP_temperature;BMP_pressure;BME280_temperature;BME280_humidity;BME280_pressure;Samples;Min_cycle;Max_cycle;Signal;HPM_P1;HPM_P2
2021/05/17 00:00:29;;;;;;;8.00;3.35;;;;;;;;;;5025572;28;20045;-39
2021/05/17 00:02:55;;;;;;;5.00;2.80;;;;;;;;;;5032106;28;20041;-39
2021/05/17 00:05:22;;;;;;;5.57;3.05;;;;;;;;;;5024392;28;20112;-39
2021/05/17 00:07:48;;;;;;;5.93;2.97;;;;;;;;;;5032127;28;20053;-39
2021/05/17 00:10:14;;;;;;;7.25;3.00;;;;;;;;;;5028204;28;20461;-39
2021/05/17 00:12:40;;;;;;;6.20;2.95;;;;;;;;;;5032897;28;20064;-39
2021/05/17 00:15:08;;;;;;;7.55;2.70;;;;;;;;;;5030233;28;20088;-40
2021/05/17 00:17:34;;;;;;;5.15;3.10;;;;;;;;;;5026800;28;20044;-39
2021/05/17 00:20:02;;;;;;;6.88;2.90;;;;;;;;;;5034688;28;20025;-39
2021/05/17 00:22:29;;;;;;;5.60;2.95;;;;;;;;;;5035610;28;20057;-39
2021/05/17 00:24:55;;;;;;;6.15;3.05;;;;;;;;;;5033287;28;20540;-39
2021/05/17 00:27:21;;;;;;;6.85;2.95;;;;;;;;;;5031618;28;20068;-39
2021/05/17 00:29:47;;;;;;;4.70;2.63;;;;;;;;;;5035646;28;20080;-45
2021/05/17 00:32:13;;;;;;;6.97;3.10;;;;;;;;;;5030950;28;20037;-40
2021/05/17 00:34:39;;;;;;;5.15;2.88;;;;;;;;;;5036017;28;20048;-39
2021/05/17 00:37:05;;;;;;;4.32;2.70;;;;;;;;;;5035518;28;20058;-44
2021/05/17 00:39:31;;;;;;;5.35;2.80;;;;;;;;;;5026143;28;20386;-40
2021/05/17 00:41:57;;;;;;;5.72;2.60;;;;;;;;;;5040678;28;20032;-39
2021/05/17 00:44:23;;;;;;;4.63;2.70;;;;;;;;;;5026662;28;20152;-39
2021/05/17 00:46:49;;;;;;;6.22;2.90;;;;;;;;;;5035342;28;20087;-40
2021/05/17 00:49:15;;;;;;;5.00;2.67;;;;;;;;;;5032985;28;20045;-42
2021/05/17 00:51:41;;;;;;;6.05;2.97;;;;;;;;;;5033303;28;20034;-40
2021/05/17 00:54:07;;;;;;;5.15;2.97;;;;;;;;;;5016887;28;20482;-39
2021/05/17 00:56:33;;;;;;;3.50;2.35;;;;;;;;;;5034404;28;20029;-39
2021/05/17 00:59:00;;;;;;;5.03;2.80;;;;;;;;;;5033146;28;20017;-39
2021/05/17 01:01:26;;;;;;;4.63;2.50;;;;;;;;;;5026801;28;20394;-43
2021/05/17 01:03:52;;;;;;;4.18;2.42;;;;;;;;;;5031259;28;20032;-40
2021/05/17 01:06:18;;;;;;;4.53;2.80;;;;;;;;;;5034272;28;20033;-45
2021/05/17 01:08:52;;;;;;;5.95;2.78;;;;;;;;;;5033168;28;20072;-48
2021/05/17 01:11:18;;;;;;;5.90;2.40;;;;;;;;;;5034712;28;20469;-40
2021/05/17 01:13:44;;;;;;;5.80;2.80;;;;;;;;;;5035368;28;20025;-43
2021/05/17 01:16:10;;;;;;;4.45;2.53;;;;;;;;;;5032932;28;20088;-40
2021/05/17 01:18:36;;;;;;;4.38;2.60;;;;;;;;;;5026552;28;20026;-53
2021/05/17 01:21:02;;;;;;;4.55;2.58;;;;;;;;;;5032929;28;20025;-40
2021/05/17 01:25:55;;;;;;;4.45;2.50;;;;;;;;;;5033078;28;20048;-45
2021/05/17 01:28:23;;;;;;;4.57;2.70;;;;;;;;;;5031667;28;20078;-43
2021/05/17 01:30:53;;;;;;;5.05;2.47;;;;;;;;;;5029605;28;20112;-43
2021/05/17 01:33:19;;;;;;;5.55;2.35;;;;;;;;;;5025685;28;20115;-41
2021/05/17 01:35:48;;;;;;;4.78;2.75;;;;;;;;;;5030035;28;20022;-43
2021/05/17 01:38:14;;;;;;;6.18;2.88;;;;;;;;;;5031082;28;20469;-42
2021/05/17 01:40:43;;;;;;;4.75;2.60;;;;;;;;;;5031906;28;20044;-43
2021/05/17 01:43:09;;;;;;;5.97;2.53;;;;;;;;;;5026871;28;20029;-39
2021/05/17 01:45:35;;;;;;;6.53;2.67;;;;;;;;;;5017600;28;20033;-39
2021/05/17 01:48:01;;;;;;;4.13;2.40;;;;;;;;;;5032502;28;20033;-40
2021/05/17 01:50:27;;;;;;;4.43;2.85;;;;;;;;;;5022782;28;20421;-40
2021/05/17 01:52:53;;;;;;;5.70;3.00;;;;;;;;;;5027059;28;20026;-43
2021/05/17 01:55:19;;;;;;;4.70;2.83;;;;;;;;;;5027336;28;20113;-40
2021/05/17 01:57:45;;;;;;;4.35;2.42;;;;;;;;;;5035159;28;20036;-39
2021/05/17 02:00:12;;;;;;;4.22;2.50;;;;;;;;;;5026688;28;20033;-39
2021/05/17 02:02:38;;;;;;;4.10;2.50;;;;;;;;;;5033693;28;20030;-39
2021/05/17 02:05:05;;;;;;;7.30;2.65;;;;;;;;;;5029958;28;20535;-39
2021/05/17 02:07:31;;;;;;;4.95;2.60;;;;;;;;;;5033471;28;20029;-39
2021/05/17 02:09:57;;;;;;;6.20;3.05;;;;;;;;;;5029927;28;20112;-39
2021/05/17 02:12:23;;;;;;;5.43;2.28;;;;;;;;;;5033869;28;20465;-39
2021/05/17 02:14:53;;;;;;;4.10;2.45;;;;;;;;;;5021261;28;20029;-39
2021/05/17 02:17:20;;;;;;;5.28;2.72;;;;;;;;;;5029422;28;20025;-39
2021/05/17 02:19:46;;;;;;;6.13;2.80;;;;;;;;;;5049404;28;20481;-39
2021/05/17 02:22:12;;;;;;;4.38;2.55;;;;;;;;;;5027769;28;20037;-39
2021/05/17 02:24:38;;;;;;;3.70;2.38;;;;;;;;;;5033278;28;20109;-39
2021/05/17 02:27:08;;;;;;;6.05;2.60;;;;;;;;;;5031465;28;20025;-39
2021/05/17 02:29:34;;;;;;;3.90;2.38;;;;;;;;;;5034070;28;20037;-39
2021/05/17 02:32:00;;;;;;;4.40;2.42;;;;;;;;;;5031169;28;20381;-39
2021/05/17 02:34:26;;;;;;;3.92;2.50;;;;;;;;;;5032014;28;20030;-39
2021/05/17 02:36:53;;;;;;;4.20;2.50;;;;;;;;;;5030230;28;20026;-39
2021/05/17 02:39:19;;;;;;;4.15;2.53;;;;;;;;;;5031009;28;20064;-39
2021/05/17 02:41:45;;;;;;;4.05;2.47;;;;;;;;;;5031186;28;20056;-39
2021/05/17 02:44:11;;;;;;;5.82;2.63;;;;;;;;;;5034308;28;20029;-39
2021/05/17 02:46:37;;;;;;;3.08;2.20;;;;;;;;;;5025581;28;20025;-39
2021/05/17 02:49:03;;;;;;;7.88;2.78;;;;;;;;;;5026629;28;20417;-39
2021/05/17 02:51:29;;;;;;;4.68;2.58;;;;;;;;;;5033220;28;20128;-39
2021/05/17 02:54:09;;;;;;;5.43;2.45;;;;;;;;;;5031539;28;20018;-39
2021/05/17 02:56:36;;;;;;;3.88;2.53;;;;;;;;;;5022809;28;20068;-39
2021/05/17 02:59:03;;;;;;;3.80;2.20;;;;;;;;;;5031380;28;20022;-39
2021/05/17 03:01:35;;;;;;;6.28;2.45;;;;;;;;;;5027444;28;20481;-39
2021/05/17 03:04:01;;;;;;;3.55;2.25;;;;;;;;;;5026037;28;20029;-39
2021/05/17 03:06:30;;;;;;;4.95;2.25;;;;;;;;;;5028316;28;20339;-39
2021/05/17 03:09:00;;;;;;;3.70;2.22;;;;;;;;;;5030173;28;20025;-39
2021/05/17 03:11:26;;;;;;;5.05;2.30;;;;;;;;;;5023651;28;20361;-39
2021/05/17 03:13:52;;;;;;;3.72;2.38;;;;;;;;;;5032836;28;20152;-39
2021/05/17 03:16:19;;;;;;;3.80;2.28;;;;;;;;;;5027292;28;20025;-39
2021/05/17 03:18:45;;;;;;;2.92;2.10;;;;;;;;;;5029061;28;20443;-39
2021/05/17 03:21:11;;;;;;;3.55;2.10;;;;;;;;;;5029649;28;20045;-38
2021/05/17 03:23:37;;;;;;;3.50;2.17;;;;;;;;;;5032167;28;20026;-39
2021/05/17 03:26:03;;;;;;;4.70;2.20;;;;;;;;;;5027377;28;20334;-39
2021/05/17 03:28:29;;;;;;;3.50;2.33;;;;;;;;;;5028932;28;20357;-39
2021/05/17 03:30:55;;;;;;;3.80;2.08;;;;;;;;;;5030738;28;20038;-39
2021/05/17 03:33:21;;;;;;;4.20;2.40;;;;;;;;;;5032625;28;20036;-39
2021/05/17 03:35:47;;;;;;;3.60;2.13;;;;;;;;;;5028899;28;20029;-39
2021/05/17 03:38:13;;;;;;;2.78;2.03;;;;;;;;;;5029554;28;20033;-39
2021/05/17 03:40:39;;;;;;;5.07;2.13;;;;;;;;;;5030067;28;20040;-39
2021/05/17 03:43:05;;;;;;;4.28;2.25;;;;;;;;;;5031834;28;20103;-39
2021/05/17 03:45:31;;;;;;;3.45;2.35;;;;;;;;;;5021862;28;20033;-39
2021/05/17 03:47:57;;;;;;;3.92;2.15;;;;;;;;;;5029240;28;20091;-39
2021/05/17 03:50:23;;;;;;;3.55;2.10;;;;;;;;;;5029187;28;20050;-38
2021/05/17 03:52:49;;;;;;;4.03;2.10;;;;;;;;;;5035659;28;20036;-39
2021/05/17 03:55:15;;;;;;;3.83;2.40;;;;;;;;;;5035522;28;20038;-39
2021/05/17 03:57:41;;;;;;;4.88;2.15;;;;;;;;;;5034994;28;20036;-39
2021/05/17 04:00:09;;;;;;;4.15;2.00;;;;;;;;;;5035669;28;20099;-39
2021/05/17 04:02:35;;;;;;;3.28;2.15;;;;;;;;;;5035820;28;20434;-39
2021/05/17 04:05:19;;;;;;;3.30;2.08;;;;;;;;;;5032502;28;20029;-39
2021/05/17 04:15:43;;;;;;;3.78;2.25;;;;;;;;;;5030131;28;20025;-39
2021/05/17 04:18:09;;;;;;;3.90;2.15;;;;;;;;;;5029625;28;20033;-38
2021/05/17 04:20:35;;;;;;;3.60;2.30;;;;;;;;;;5031822;28;20041;-39
2021/05/17 04:23:01;;;;;;;4.55;2.17;;;;;;;;;;5031480;28;20029;-39
2021/05/17 04:25:27;;;;;;;3.88;2.20;;;;;;;;;;5031868;28;20036;-38
2021/05/17 04:27:53;;;;;;;3.95;2.00;;;;;;;;;;5035862;28;20036;-38
2021/05/17 04:30:19;;;;;;;3.10;2.10;;;;;;;;;;5022548;28;20374;-38
2021/05/17 04:32:45;;;;;;;3.75;2.25;;;;;;;;;;5031652;28;20030;-38
2021/05/17 04:35:12;;;;;;;3.72;2.10;;;;;;;;;;5033167;28;20026;-38
2021/05/17 04:37:38;;;;;;;3.30;1.77;;;;;;;;;;5035936;28;20025;-38
2021/05/17 04:40:05;;;;;;;3.65;2.05;;;;;;;;;;5025092;28;20443;-38
2021/05/17 04:42:31;;;;;;;5.85;2.20;;;;;;;;;;5033013;28;20025;-38
2021/05/17 04:44:57;;;;;;;4.07;1.90;;;;;;;;;;5035802;28;20025;-39
2021/05/17 04:47:23;;;;;;;3.75;2.03;;;;;;;;;;5030063;28;20021;-39
2021/05/17 04:49:49;;;;;;;3.60;2.25;;;;;;;;;;5019526;28;20108;-39
2021/05/17 04:52:15;;;;;;;3.20;2.10;;;;;;;;;;5028710;28;20037;-39
2021/05/17 04:54:41;;;;;;;4.20;2.20;;;;;;;;;;5034078;28;20035;-39
2021/05/17 04:57:07;;;;;;;4.10;1.77;;;;;;;;;;5033393;28;20108;-40
2021/05/17 04:59:33;;;;;;;4.28;2.03;;;;;;;;;;5033195;28;20027;-40
2021/05/17 05:01:59;;;;;;;3.15;1.90;;;;;;;;;;5035392;28;20367;-40
2021/05/17 05:04:25;;;;;;;3.60;1.90;;;;;;;;;;5021087;28;20026;-40
2021/05/17 05:06:51;;;;;;;3.20;2.00;;;;;;;;;;5034285;28;20114;-40
2021/05/17 05:09:18;;;;;;;3.00;1.70;;;;;;;;;;5030429;28;20026;-40
2021/05/17 05:11:44;;;;;;;3.15;1.75;;;;;;;;;;5034905;28;20103;-39
2021/05/17 05:14:09;;;;;;;2.40;1.75;;;;;;;;;;5034070;28;20441;-41
2021/05/17 05:16:35;;;;;;;4.65;2.13;;;;;;;;;;5035110;28;20029;-40
2021/05/17 05:19:02;;;;;;;2.10;1.60;;;;;;;;;;5031471;28;20029;-39
2021/05/17 05:21:28;;;;;;;2.63;1.80;;;;;;;;;;5035346;28;20339;-39
2021/05/17 05:23:54;;;;;;;4.25;2.00;;;;;;;;;;5032945;28;20056;-40
2021/05/17 05:34:05;;;;;;;3.10;1.50;;;;;;;;;;5028574;28;20506;-39
2021/05/17 05:36:32;;;;;;;6.57;1.60;;;;;;;;;;5033805;28;20047;-40
2021/05/17 05:38:59;;;;;;;2.78;1.52;;;;;;;;;;5034574;28;20029;-39
2021/05/17 05:41:25;;;;;;;3.50;1.73;;;;;;;;;;5027664;28;20034;-40
2021/05/17 05:43:51;;;;;;;3.38;1.80;;;;;;;;;;5032358;28;20134;-40
2021/05/17 05:46:17;;;;;;;2.70;1.60;;;;;;;;;;5030024;28;20040;-40
2021/05/17 05:48:49;;;;;;;2.72;1.83;;;;;;;;;;5033455;28;20036;-41
2021/05/17 05:51:15;;;;;;;2.80;1.35;;;;;;;;;;5029060;28;20120;-40
2021/05/17 05:53:41;;;;;;;4.80;1.95;;;;;;;;;;5034370;28;20172;-38
2021/05/17 05:56:07;;;;;;;3.40;1.77;;;;;;;;;;5032740;28;20083;-43
2021/05/17 05:58:33;;;;;;;2.42;1.52;;;;;;;;;;5033964;28;20025;-46
2021/05/17 06:00:59;;;;;;;3.20;1.70;;;;;;;;;;5028484;28;20481;-44
2021/05/17 06:03:25;;;;;;;4.82;1.83;;;;;;;;;;5034017;28;20033;-48
2021/05/17 06:05:51;;;;;;;2.80;1.80;;;;;;;;;;5027145;28;20021;-45
2021/05/17 06:08:17;;;;;;;9.93;1.75;;;;;;;;;;5033076;28;20021;-46
2021/05/17 06:10:43;;;;;;;4.05;1.75;;;;;;;;;;5028702;28;20037;-45
2021/05/17 06:13:09;;;;;;;3.45;1.50;;;;;;;;;;5033587;28;20099;-46
2021/05/17 06:15:36;;;;;;;4.15;1.55;;;;;;;;;;5032508;28;20408;-45
2021/05/17 06:18:02;;;;;;;3.17;1.98;;;;;;;;;;5033254;28;20359;-45
2021/05/17 06:20:28;;;;;;;2.33;1.45;;;;;;;;;;5033092;28;20033;-45
2021/05/17 06:22:54;;;;;;;3.15;1.55;;;;;;;;;;5032670;28;20060;-44
2021/05/17 06:25:20;;;;;;;2.55;1.50;;;;;;;;;;5032366;28;20025;-44
2021/05/17 06:27:47;;;;;;;2.55;1.60;;;;;;;;;;5033619;28;20095;-46
2021/05/17 06:30:13;;;;;;;3.08;1.55;;;;;;;;;;5031949;28;20029;-46
2021/05/17 06:32:40;;;;;;;5.95;1.60;;;;;;;;;;5032127;28;20498;-46
2021/05/17 06:35:07;;;;;;;3.88;1.60;;;;;;;;;;5031258;28;20021;-45
2021/05/17 06:37:33;;;;;;;3.15;1.60;;;;;;;;;;5032168;28;20500;-45
2021/05/17 06:39:59;;;;;;;2.40;1.60;;;;;;;;;;5031543;28;20030;-45
2021/05/17 06:42:25;;;;;;;3.63;1.40;;;;;;;;;;5032210;28;20083;-46
2021/05/17 06:44:51;;;;;;;3.97;1.70;;;;;;;;;;5031458;28;20034;-44
2021/05/17 06:47:18;;;;;;;3.78;1.50;;;;;;;;;;5031963;28;20025;-45
2021/05/17 06:49:44;;;;;;;2.63;1.50;;;;;;;;;;5032013;28;20052;-45
2021/05/17 06:52:13;;;;;;;3.17;1.35;;;;;;;;;;5032284;28;20123;-45
2021/05/17 06:54:39;;;;;;;3.13;1.58;;;;;;;;;;5031801;28;20025;-47
2021/05/17 06:59:41;;;;;;;3.15;1.45;;;;;;;;;;5033136;28;20025;-46
2021/05/17 07:02:09;;;;;;;2.95;1.42;;;;;;;;;;5027948;28;20030;-45
2021/05/17 07:04:35;;;;;;;4.90;1.70;;;;;;;;;;5030251;28;20517;-45
2021/05/17 07:07:02;;;;;;;1.90;1.20;;;;;;;;;;5031368;28;20466;-45
2021/05/17 07:12:17;;;;;;;5.18;1.67;;;;;;;;;;5030894;28;20056;-44
2021/05/17 07:14:43;;;;;;;3.22;1.40;;;;;;;;;;5031526;28;20361;-46
2021/05/17 07:17:09;;;;;;;2.72;1.70;;;;;;;;;;5030944;28;20014;-45
2021/05/17 07:19:36;;;;;;;2.45;1.50;;;;;;;;;;5030245;28;20110;-46
2021/05/17 07:24:46;;;;;;;3.55;1.50;;;;;;;;;;5034984;28;20040;-50
2021/05/17 07:27:12;;;;;;;1.80;1.25;;;;;;;;;;5036100;28;20044;-52
2021/05/17 07:29:39;;;;;;;3.58;1.30;;;;;;;;;;5036572;28;20033;-43
2021/05/17 07:32:07;;;;;;;2.22;1.42;;;;;;;;;;5036833;28;20092;-45
2021/05/17 07:34:35;;;;;;;2.83;1.60;;;;;;;;;;5036058;28;20358;-44
2021/05/17 07:37:01;;;;;;;2.20;1.30;;;;;;;;;;5036184;28;20088;-45
2021/05/17 07:39:27;;;;;;;3.47;1.45;;;;;;;;;;5036269;28;20057;-45
2021/05/17 07:41:53;;;;;;;2.60;1.77;;;;;;;;;;5035853;28;20484;-45
2021/05/17 07:44:19;;;;;;;3.85;1.35;;;;;;;;;;5036429;28;20121;-43
2021/05/17 07:46:45;;;;;;;3.28;1.58;;;;;;;;;;5036109;28;20025;-46
2021/05/17 07:49:17;;;;;;;2.88;1.25;;;;;;;;;;5035343;28;20042;-42
2021/05/17 07:51:44;;;;;;;4.10;1.30;;;;;;;;;;5032008;28;20366;-43
2021/05/17 07:54:11;;;;;;;3.90;1.40;;;;;;;;;;5036218;28;20013;-45
2021/05/17 07:56:37;;;;;;;2.70;1.65;;;;;;;;;;5035198;28;20339;-50
2021/05/17 07:59:03;;;;;;;4.32;1.50;;;;;;;;;;5035183;28;20391;-48
2021/05/17 08:01:30;;;;;;;2.05;1.10;;;;;;;;;;5033854;28;20091;-44
2021/05/17 08:03:56;;;;;;;3.00;1.40;;;;;;;;;;5035219;28;20034;-48
2021/05/17 08:06:24;;;;;;;2.17;1.30;;;;;;;;;;5035139;28;20076;-45
2021/05/17 08:08:50;;;;;;;3.22;1.40;;;;;;;;;;5032247;28;20025;-47
2021/05/17 08:11:16;;;;;;;2.10;1.30;;;;;;;;;;5033991;28;20112;-44
2021/05/17 08:13:43;;;;;;;2.67;1.35;;;;;;;;;;5034601;28;20067;-44
2021/05/17 08:16:10;;;;;;;1.92;1.20;;;;;;;;;;5034548;28;20464;-42
2021/05/17 08:18:37;;;;;;;3.22;1.45;;;;;;;;;;5035019;28;20116;-43
2021/05/17 08:21:03;;;;;;;4.43;1.50;;;;;;;;;;5033433;28;20044;-45
2021/05/17 08:23:29;;;;;;;5.28;1.30;;;;;;;;;;5034749;28;20454;-46
2021/05/17 08:25:55;;;;;;;1.55;1.00;;;;;;;;;;5034624;28;20041;-42
2021/05/17 08:28:21;;;;;;;2.58;1.33;;;;;;;;;;5034419;28;20025;-45
2021/05/17 08:30:54;;;;;;;4.15;1.42;;;;;;;;;;5036170;28;20029;-53
2021/05/17 08:33:20;;;;;;;2.72;1.30;;;;;;;;;;5035992;28;20029;-50
2021/05/17 08:35:46;;;;;;;2.60;1.20;;;;;;;;;;5035189;28;20461;-38
2021/05/17 08:38:12;;;;;;;6.00;1.50;;;;;;;;;;5036024;28;20041;-54
2021/05/17 08:40:38;;;;;;;2.38;1.20;;;;;;;;;;5033797;28;20534;-49
2021/05/17 08:43:05;;;;;;;2.20;1.10;;;;;;;;;;5035446;28;20374;-46
2021/05/17 08:45:31;;;;;;;5.05;1.40;;;;;;;;;;5033547;28;20105;-54
2021/05/17 08:47:57;;;;;;;1.70;1.15;;;;;;;;;;5033603;28;20040;-46
2021/05/17 08:50:23;;;;;;;4.30;1.40;;;;;;;;;;5032626;28;20351;-47
2021/05/17 08:52:49;;;;;;;1.98;1.15;;;;;;;;;;5032739;28;20030;-50
2021/05/17 08:55:15;;;;;;;2.90;1.20;;;;;;;;;;5033562;28;20036;-42
2021/05/17 08:57:42;;;;;;;2.75;1.30;;;;;;;;;;5033180;28;20021;-43
2021/05/17 09:00:08;;;;;;;3.38;1.30;;;;;;;;;;5033127;28;20033;-46
2021/05/17 09:02:34;;;;;;;3.58;1.10;;;;;;;;;;5033428;28;20041;-54
2021/05/17 09:05:07;;;;;;;3.00;1.10;;;;;;;;;;5034651;28;20542;-51
2021/05/17 09:07:34;;;;;;;2.30;1.20;;;;;;;;;;5035399;28;20453;-44
2021/05/17 09:10:00;;;;;;;2.00;1.05;;;;;;;;;;5035306;28;20093;-54
2021/05/17 09:12:26;;;;;;;3.20;1.10;;;;;;;;;;5034188;28;20314;-60
2021/05/17 09:14:55;;;;;;;2.92;1.40;;;;;;;;;;5035286;28;20028;-59
2021/05/17 09:17:21;;;;;;;2.83;1.17;;;;;;;;;;5035131;28;20033;-40
2021/05/17 09:19:47;;;;;;;1.35;1.05;;;;;;;;;;5017392;28;20021;-45
2021/05/17 09:22:14;;;;;;;0.98;0.88;;;;;;;;;;5034809;28;20369;-45
2021/05/17 09:24:43;;;;;;;1.35;0.90;;;;;;;;;;5034816;28;20094;-42
2021/05/17 09:27:32;;;;;;;4.03;1.10;;;;;;;;;;5034457;28;20501;-45
2021/05/17 09:30:00;;;;;;;4.05;1.17;;;;;;;;;;5032992;28;20377;-45
2021/05/17 09:32:36;;;;;;;2.17;1.10;;;;;;;;;;5032288;28;20026;-39
2021/05/17 09:35:03;;;;;;;4.07;1.00;;;;;;;;;;5029512;28;20037;-44
2021/05/17 09:37:42;;;;;;;2.80;0.95;;;;;;;;;;5034972;28;20032;-47
2021/05/17 09:40:21;;;;;;;1.75;0.98;;;;;;;;;;5033588;28;20079;-47
2021/05/17 09:42:59;;;;;;;1.83;0.90;;;;;;;;;;5033689;28;20036;-45
2021/05/17 09:45:32;;;;;;;3.00;0.80;;;;;;;;;;5033979;28;20468;-49
2021/05/17 09:47:58;;;;;;;4.40;1.13;;;;;;;;;;5032370;28;20029;-48
2021/05/17 09:50:24;;;;;;;3.72;1.10;;;;;;;;;;5033375;28;20053;-48
2021/05/17 09:52:50;;;;;;;3.35;0.80;;;;;;;;;;5033930;28;20018;-45
2021/05/17 09:55:16;;;;;;;1.38;0.85;;;;;;;;;;5032184;28;20396;-51
2021/05/17 09:57:43;;;;;;;1.48;0.85;;;;;;;;;;5031094;28;20025;-46
2021/05/17 10:00:19;;;;;;;3.30;0.80;;;;;;;;;;5033544;28;20370;-48
2021/05/17 10:02:46;;;;;;;0.88;0.80;;;;;;;;;;5031304;28;20095;-46
2021/05/17 10:05:48;;;;;;;1.23;0.82;;;;;;;;;;5032462;28;20017;-48
2021/05/17 10:08:16;;;;;;;1.63;0.63;;;;;;;;;;5027295;28;20061;-44
2021/05/17 10:10:42;;;;;;;1.92;0.70;;;;;;;;;;5028774;28;20383;-47
2021/05/17 10:13:08;;;;;;;1.25;0.70;;;;;;;;;;5033855;28;20100;-40
2021/05/17 10:15:34;;;;;;;3.83;0.80;;;;;;;;;;5034169;28;20426;-46
2021/05/17 10:18:00;;;;;;;0.85;0.70;;;;;;;;;;5033991;28;20029;-46
2021/05/17 10:20:27;;;;;;;1.10;0.75;;;;;;;;;;5033928;28;20033;-47
2021/05/17 10:22:53;;;;;;;2.17;0.50;;;;;;;;;;5034100;28;20026;-47
2021/05/17 10:25:23;;;;;;;0.82;0.43;;;;;;;;;;5032963;28;20021;-48
2021/05/17 10:27:53;;;;;;;0.90;0.40;;;;;;;;;;5033438;28;20036;-46
2021/05/17 10:30:23;;;;;;;1.88;0.63;;;;;;;;;;5032870;28;20029;-44
2021/05/17 10:32:53;;;;;;;1.58;0.68;;;;;;;;;;5033625;28;20358;-44
2021/05/17 10:35:19;;;;;;;2.78;0.60;;;;;;;;;;5033711;28;20355;-44
2021/05/17 10:37:46;;;;;;;0.80;0.60;;;;;;;;;;5033936;28;20064;-45
2021/05/17 10:40:30;;;;;;;1.52;0.50;;;;;;;;;;5033597;28;20053;-45
2021/05/17 10:43:05;;;;;;;1.58;0.50;;;;;;;;;;5031662;28;20045;-45
2021/05/17 10:48:34;;;;;;;3.00;0.55;;;;;;;;;;5033296;28;20036;-43
2021/05/17 10:51:17;;;;;;;1.30;0.60;;;;;;;;;;5033042;28;20050;-43
2021/05/17 10:53:43;;;;;;;2.90;1.10;;;;;;;;;;5032567;28;20079;-45
2021/05/17 10:56:10;;;;;;;2.05;0.60;;;;;;;;;;5032426;28;20357;-46
2021/05/17 11:01:59;;;;;;;15.02;3.85;;;;;;;;;;5033475;28;20087;-43
2021/05/17 11:04:28;;;;;;;21.08;5.43;;;;;;;;;;5028515;28;20022;-44
2021/05/17 11:07:12;;;;;;;34.40;6.05;;;;;;;;;;5032607;28;20034;-45
2021/05/17 11:10:01;;;;;;;38.08;7.40;;;;;;;;;;5033097;28;20354;-43
2021/05/17 11:12:28;;;;;;;37.03;9.50;;;;;;;;;;5030229;28;20044;-45
2021/05/17 11:15:03;;;;;;;44.50;8.73;;;;;;;;;;5033558;28;20383;-42
2021/05/17 11:17:29;;;;;;;36.63;7.95;;;;;;;;;;5032967;28;20029;-39
2021/05/17 11:19:58;;;;;;;36.78;7.28;;;;;;;;;;5032728;28;20025;-40
2021/05/17 11:22:43;;;;;;;39.13;8.15;;;;;;;;;;5032506;28;20017;-40
2021/05/17 11:25:09;;;;;;;32.88;6.90;;;;;;;;;;5032965;28;20386;-39
2021/05/17 11:27:47;;;;;;;30.17;6.47;;;;;;;;;;5032735;28;20030;-40
2021/05/17 11:30:36;;;;;;;30.48;6.07;;;;;;;;;;5032863;28;20032;-40
2021/05/17 11:33:20;;;;;;;33.22;7.05;;;;;;;;;;5032994;28;20810;-43
2021/05/17 11:36:10;;;;;;;28.83;6.82;;;;;;;;;;5032087;28;20028;-40
2021/05/17 11:38:36;;;;;;;34.22;7.07;;;;;;;;;;5031696;28;20024;-40
2021/05/17 11:41:03;;;;;;;29.05;6.40;;;;;;;;;;5032467;28;20029;-40
2021/05/17 11:43:32;;;;;;;31.02;6.82;;;;;;;;;;5013023;28;20037;-49
2021/05/17 11:45:58;;;;;;;25.40;6.22;;;;;;;;;;5023241;28;20112;-51
2021/05/17 11:48:27;;;;;;;26.42;5.55;;;;;;;;;;5030798;28;20022;-55
2021/05/17 11:50:53;;;;;;;25.42;5.80;;;;;;;;;;5029823;28;20463;-52
2021/05/17 11:53:19;;;;;;;20.58;5.13;;;;;;;;;;5030552;28;20116;-40
2021/05/17 11:55:46;;;;;;;24.77;5.85;;;;;;;;;;5025145;28;20032;-40
2021/05/17 11:58:12;;;;;;;29.75;5.63;;;;;;;;;;5030229;28;20025;-50
2021/05/17 12:00:38;;;;;;;22.15;4.72;;;;;;;;;;5032867;28;20029;-52
2021/05/17 12:03:09;;;;;;;16.50;3.78;;;;;;;;;;5033077;28;20053;-56
2021/05/17 12:05:35;;;;;;;;;;;;;;;;;;5026365;28;20040;-52
2021/05/17 12:08:01;;;;;;;15.05;3.53;;;;;;;;;;5032804;28;20250;-55
2021/05/17 12:10:34;;;;;;;11.05;3.28;;;;;;;;;;5034133;28;20128;-40
2021/05/17 12:13:00;;;;;;;11.63;3.03;;;;;;;;;;5035533;28;20041;-39
2021/05/17 12:15:26;;;;;;;13.43;3.30;;;;;;;;;;5035630;28;20037;-41
2021/05/17 12:17:52;;;;;;;11.57;2.85;;;;;;;;;;5036599;28;20135;-45
2021/05/17 12:20:18;;;;;;;12.18;2.80;;;;;;;;;;5032815;28;20037;-43
2021/05/17 12:22:45;;;;;;;13.10;3.15;;;;;;;;;;5035016;28;20026;-44
2021/05/17 12:25:11;;;;;;;10.63;2.70;;;;;;;;;;5035845;28;20406;-48
2021/05/17 12:27:38;;;;;;;10.80;2.50;;;;;;;;;;5035693;28;20053;-53
2021/05/17 12:30:04;;;;;;;7.00;2.13;;;;;;;;;;5035337;28;20022;-50
2021/05/17 12:32:34;;;;;;;12.15;2.47;;;;;;;;;;5035749;28;20037;-46
2021/05/17 12:35:01;;;;;;;10.57;2.13;;;;;;;;;;5030581;28;20412;-49
2021/05/17 12:37:29;;;;;;;10.15;2.33;;;;;;;;;;5035061;28;20075;-51
2021/05/17 12:40:14;;;;;;;9.50;2.22;;;;;;;;;;5034531;28;20392;-49
2021/05/17 12:42:40;;;;;;;9.35;2.60;;;;;;;;;;5033790;28;20514;-44
2021/05/17 12:45:13;;;;;;;8.05;1.90;;;;;;;;;;5030427;28;20025;-45
2021/05/17 12:47:45;;;;;;;8.02;2.20;;;;;;;;;;5033137;28;20365;-40
2021/05/17 12:50:18;;;;;;;7.55;2.00;;;;;;;;;;5034872;28;20049;-41
2021/05/17 12:52:44;;;;;;;6.88;2.15;;;;;;;;;;5035433;28;20350;-41
2021/05/17 12:55:12;;;;;;;8.82;2.03;;;;;;;;;;5035135;28;20014;-41
2021/05/17 12:57:44;;;;;;;6.65;2.08;;;;;;;;;;5044992;28;20021;-39
2021/05/17 13:00:10;;;;;;;7.88;1.90;;;;;;;;;;5041292;28;20029;-38
2021/05/17 13:02:36;;;;;;;6.30;1.92;;;;;;;;;;5036490;28;20119;-38
2021/05/17 13:05:02;;;;;;;9.73;2.35;;;;;;;;;;5050413;28;20029;-42
2021/05/17 13:07:28;;;;;;;5.97;1.60;;;;;;;;;;5041252;28;20044;-47
2021/05/17 13:09:55;;;;;;;7.28;1.70;;;;;;;;;;5042458;28;20025;-42
2021/05/17 13:12:21;;;;;;;6.82;1.85;;;;;;;;;;5033663;28;20086;-45
2021/05/17 13:14:48;;;;;;;7.35;1.77;;;;;;;;;;5034242;28;20029;-43
2021/05/17 13:17:15;;;;;;;7.85;2.28;;;;;;;;;;5030830;28;20319;-44
2021/05/17 13:19:46;;;;;;;6.13;1.90;;;;;;;;;;5033369;28;20029;-40
2021/05/17 13:30:55;;;;;;;9.52;1.70;;;;;;;;;;4989897;28;20041;-45
2021/05/17 13:33:22;;;;;;;6.30;1.50;;;;;;;;;;5018599;28;20029;-43
2021/05/17 13:35:49;;;;;;;4.05;1.20;;;;;;;;;;5033910;28;20025;-46
2021/05/17 13:38:15;;;;;;;3.30;1.35;;;;;;;;;;5033093;28;20036;-41
2021/05/17 13:40:41;;;;;;;5.78;1.33;;;;;;;;;;5034580;28;20022;-43
2021/05/17 13:43:07;;;;;;;4.53;1.25;;;;;;;;;;5034284;28;20033;-40
2021/05/17 13:45:33;;;;;;;8.35;1.30;;;;;;;;;;5032864;28;20030;-37
2021/05/17 13:47:59;;;;;;;4.53;1.50;;;;;;;;;;5033021;28;20469;-50
2021/05/17 13:50:25;;;;;;;4.10;1.20;;;;;;;;;;5032597;28;20048;-49
2021/05/17 13:52:51;;;;;;;4.15;1.30;;;;;;;;;;5033555;28;20735;-51
2021/05/17 13:55:17;;;;;;;5.35;1.10;;;;;;;;;;5033763;28;20093;-43
2021/05/17 13:57:43;;;;;;;5.25;1.27;;;;;;;;;;5031288;28;20107;-47
2021/05/17 14:00:10;;;;;;;5.50;1.30;;;;;;;;;;5033954;28;20032;-45
2021/05/17 14:02:36;;;;;;;6.00;1.27;;;;;;;;;;5033966;28;20105;-45
2021/05/17 14:05:03;;;;;;;5.65;1.35;;;;;;;;;;5033945;28;20034;-44
2021/05/17 14:07:29;;;;;;;4.95;1.52;;;;;;;;;;5033820;28;20100;-45
2021/05/17 14:09:55;;;;;;;4.10;1.08;;;;;;;;;;5033722;28;20120;-42
2021/05/17 14:12:21;;;;;;;5.90;1.25;;;;;;;;;;5033841;28;20100;-43
2021/05/17 14:14:47;;;;;;;4.53;1.10;;;;;;;;;;5033733;28;20014;-41
2021/05/17 14:17:13;;;;;;;9.70;1.40;;;;;;;;;;5033309;28;20026;-47
2021/05/17 14:19:39;;;;;;;7.88;1.58;;;;;;;;;;5033956;28;20378;-40
2021/05/17 14:22:06;;;;;;;3.00;0.80;;;;;;;;;;5033574;28;20462;-40
2021/05/17 14:24:33;;;;;;;0.35;0.28;;;;;;;;;;5033825;28;20033;-38
2021/05/17 14:26:59;;;;;;;2.78;0.70;;;;;;;;;;5032275;28;20025;-39
2021/05/17 14:29:26;;;;;;;2.40;0.60;;;;;;;;;;5031664;28;20075;-41
2021/05/17 14:31:53;;;;;;;3.88;0.60;;;;;;;;;;5032280;28;20074;-48
2021/05/17 14:34:19;;;;;;;2.22;0.70;;;;;;;;;;5031636;28;20021;-43
2021/05/17 14:36:45;;;;;;;0.80;0.28;;;;;;;;;;5030907;28;20029;-51
2021/05/17 14:39:11;;;;;;;0.88;0.30;;;;;;;;;;5031979;28;20090;-55
2021/05/17 14:41:37;;;;;;;1.00;0.30;;;;;;;;;;5030588;28;20025;-49
2021/05/17 14:44:04;;;;;;;2.92;0.40;;;;;;;;;;5032315;28;20030;-42
2021/05/17 14:46:30;;;;;;;1.23;0.40;;;;;;;;;;5032620;28;20155;-40
2021/05/17 14:48:56;;;;;;;3.22;0.50;;;;;;;;;;5031241;28;20036;-40
2021/05/17 14:51:22;;;;;;;2.33;0.40;;;;;;;;;;5033027;28;20112;-45
2021/05/17 14:53:49;;;;;;;1.20;0.45;;;;;;;;;;5032633;28;20061;-42
2021/05/17 14:56:16;;;;;;;0.93;0.55;;;;;;;;;;5032969;28;20140;-46
2021/05/17 14:58:42;;;;;;;0.95;0.40;;;;;;;;;;5031229;28;20024;-42
2021/05/17 15:01:08;;;;;;;1.75;0.65;;;;;;;;;;5032587;28;20022;-46
2021/05/17 15:03:34;;;;;;;0.63;0.30;;;;;;;;;;5033103;28;20056;-47
2021/05/17 15:06:00;;;;;;;1.13;0.40;;;;;;;;;;5032876;28;20021;-42
2021/05/17 15:08:26;;;;;;;4.40;0.50;;;;;;;;;;5032762;28;20029;-40
2021/05/17 15:10:52;;;;;;;5.13;0.75;;;;;;;;;;5031851;28;20036;-40
2021/05/17 15:13:18;;;;;;;2.03;0.50;;;;;;;;;;5032751;28;20017;-41
2021/05/17 15:15:44;;;;;;;0.77;0.35;;;;;;;;;;5032546;28;20126;-49
2021/05/17 15:18:10;;;;;;;1.50;0.40;;;;;;;;;;5032890;28;20026;-47
2021/05/17 15:20:36;;;;;;;1.05;0.43;;;;;;;;;;5030604;28;20120;-39
2021/05/17 15:23:15;;;;;;;1.38;0.57;;;;;;;;;;5032782;28;20033;-39
2021/05/17 15:25:41;;;;;;;1.17;0.35;;;;;;;;;;5027300;28;20032;-39